Huvudsida
METAR-TAF:

METAR-TAF

Flygplatser :

Lichinga, Moçambique

latitud: 13-18S, longitud: 035-14E, höjd: 1364 m

Aktuellt väderrapport

Denna rapport gjordes för 56 minuter sedan, klockan 11:00 UTC
Vind 5 kt från nord/nordväst
Temperatur 22°C
Fuktighet 43%
Tryck 1024 hPa
Sikt 10 km eller mer
Få moln på en höjd av 4000 ft

METAR: FQLC 181100Z 33005KT 9999 FEW040 22/09 Q1024

Tid: 13:56 (11:56 UTC)

Väderprognos

Denna rapport gjordes för 1 timme och 56 minuter sedan, klockan 10:00 UTC
Prognos gäller från 18 kl. 12 UTC till 19 kl. 12 UTC
Vind 7 kt från ost/nordost
Sikt 10 km eller mer
Spridda moln på en höjd av 4000 ft
Blir
från 18 kl. 21 UTC till 18 kl. 23 UTC
Vind 2 kt varierande vindriktning

TAF: FQLC 181000Z 1812/1912 07007KT 9999 SCT040 TX24/1813Z TN10/1902Z BECMG 1821/1823 VRB02KT

Aktuella väderrapporter och prognoser från 4000 flygplatser (METAR- och TAF-rapporter).

De tillgängliga stationerna syns som gula och röda prickar på kartan.

För musen över prickarna för att se namnen på stationerna.

Klicka sedan för att få väderrapporter och prognoser.

För att ändra kartan: Klicka på de gröna knapparna med ett svart kors på för att zooma in; den gröna knappen med ett streck på för att zooma ut; eller på de gröna pilarna för angränsande kartor.


METAR-TAF: